sensor_id;sensor_type;location;lat;lon;timestamp;pressure;altitude;pressure_sealevel;temperature;humidity
15263;BME280;7733;51.554;13.590;2023-04-01T00:00:59;98651.91;;;11.27;100.00
15263;BME280;7733;51.554;13.590;2023-04-01T00:03:26;98655.97;;;11.14;100.00
15263;BME280;7733;51.554;13.590;2023-04-01T00:05:55;98662.44;;;11.07;100.00
15263;BME280;7733;51.554;13.590;2023-04-01T00:08:22;98653.59;;;11.28;100.00
15263;BME280;7733;51.554;13.590;2023-04-01T00:10:48;98648.28;;;11.30;100.00
15263;BME280;7733;51.554;13.590;2023-04-01T00:13:14;98648.44;;;11.46;100.00
15263;BME280;7733;51.554;13.590;2023-04-01T00:15:41;98649.19;;;11.10;100.00
15263;BME280;7733;51.554;13.590;2023-04-01T00:18:08;98649.97;;;11.12;100.00
15263;BME280;7733;51.554;13.590;2023-04-01T00:20:34;98645.63;;;11.11;100.00
15263;BME280;7733;51.554;13.590;2023-04-01T00:23:00;98652.47;;;11.34;100.00
15263;BME280;7733;51.554;13.590;2023-04-01T00:25:25;98646.56;;;11.10;100.00
15263;BME280;7733;51.554;13.590;2023-04-01T00:27:51;98652.59;;;11.12;100.00
15263;BME280;7733;51.554;13.590;2023-04-01T00:30:18;98651.34;;;11.01;100.00
15263;BME280;7733;51.554;13.590;2023-04-01T00:32:43;98647.91;;;11.19;100.00
15263;BME280;7733;51.554;13.590;2023-04-01T00:35:10;98654.56;;;11.07;100.00
15263;BME280;7733;51.554;13.590;2023-04-01T00:37:37;98647.19;;;11.15;100.00
15263;BME280;7733;51.554;13.590;2023-04-01T00:40:08;98657.69;;;11.15;100.00
15263;BME280;7733;51.554;13.590;2023-04-01T00:42:45;98652.19;;;11.40;100.00
15263;BME280;7733;51.554;13.590;2023-04-01T00:45:37;98651.50;;;11.16;100.00
15263;BME280;7733;51.554;13.590;2023-04-01T00:48:35;98651.97;;;11.26;100.00
15263;BME280;7733;51.554;13.590;2023-04-01T00:51:10;98654.66;;;11.24;100.00
15263;BME280;7733;51.554;13.590;2023-04-01T00:53:41;98648.97;;;11.15;100.00
15263;BME280;7733;51.554;13.590;2023-04-01T00:56:19;98648.47;;;11.07;100.00
15263;BME280;7733;51.554;13.590;2023-04-01T00:59:07;98642.78;;;11.16;100.00
15263;BME280;7733;51.554;13.590;2023-04-01T01:01:36;98656.31;;;11.27;100.00
15263;BME280;7733;51.554;13.590;2023-04-01T01:04:03;98654.47;;;11.29;100.00
15263;BME280;7733;51.554;13.590;2023-04-01T01:06:46;98648.69;;;11.21;100.00
15263;BME280;7733;51.554;13.590;2023-04-01T01:18:03;98653.69;;;11.27;100.00
15263;BME280;7733;51.554;13.590;2023-04-01T01:37:38;98655.03;;;11.36;100.00
15263;BME280;7733;51.554;13.590;2023-04-01T01:40:09;98658.72;;;11.32;100.00
15263;BME280;7733;51.554;13.590;2023-04-01T01:42:41;98660.97;;;11.39;100.00
15263;BME280;7733;51.554;13.590;2023-04-01T01:45:13;98657.31;;;11.43;100.00
15263;BME280;7733;51.554;13.590;2023-04-01T01:47:41;98655.59;;;11.23;100.00
15263;BME280;7733;51.554;13.590;2023-04-01T01:50:09;98659.38;;;11.16;100.00
15263;BME280;7733;51.554;13.590;2023-04-01T01:52:35;98654.34;;;11.51;100.00
15263;BME280;7733;51.554;13.590;2023-04-01T01:55:00;98663.00;;;11.53;100.00
15263;BME280;7733;51.554;13.590;2023-04-01T01:57:32;98664.97;;;11.48;100.00
15263;BME280;7733;51.554;13.590;2023-04-01T02:00:06;98663.28;;;11.47;100.00
15263;BME280;7733;51.554;13.590;2023-04-01T02:02:40;98670.19;;;11.68;100.00
15263;BME280;7733;51.554;13.590;2023-04-01T02:05:10;98673.56;;;11.51;100.00
15263;BME280;7733;51.554;13.590;2023-04-01T02:07:39;98662.66;;;11.79;100.00
15263;BME280;7733;51.554;13.590;2023-04-01T02:10:08;98662.59;;;11.81;100.00
15263;BME280;7733;51.554;13.590;2023-04-01T02:12:36;98658.78;;;11.88;100.00
15263;BME280;7733;51.554;13.590;2023-04-01T02:15:09;98654.75;;;11.61;100.00
15263;BME280;7733;51.554;13.590;2023-04-01T02:17:42;98657.59;;;11.75;100.00
15263;BME280;7733;51.554;13.590;2023-04-01T02:20:15;98654.91;;;11.76;100.00
15263;BME280;7733;51.554;13.590;2023-04-01T02:22:53;98654.81;;;11.78;100.00
15263;BME280;7733;51.554;13.590;2023-04-01T02:25:35;98665.28;;;11.79;100.00
15263;BME280;7733;51.554;13.590;2023-04-01T02:28:04;98660.84;;;11.61;100.00
15263;BME280;7733;51.554;13.590;2023-04-01T02:30:35;98661.78;;;11.41;100.00
15263;BME280;7733;51.554;13.590;2023-04-01T02:33:03;98661.75;;;11.80;100.00
15263;BME280;7733;51.554;13.590;2023-04-01T02:35:34;98670.59;;;11.59;100.00
15263;BME280;7733;51.554;13.590;2023-04-01T02:38:01;98663.38;;;11.64;100.00
15263;BME280;7733;51.554;13.590;2023-04-01T02:40:27;98668.38;;;11.50;100.00
15263;BME280;7733;51.554;13.590;2023-04-01T02:42:53;98673.00;;;11.45;100.00
15263;BME280;7733;51.554;13.590;2023-04-01T02:45:19;98673.06;;;11.43;100.00
15263;BME280;7733;51.554;13.590;2023-04-01T02:47:44;98675.75;;;11.23;100.00
15263;BME280;7733;51.554;13.590;2023-04-01T02:50:10;98676.34;;;11.48;100.00
15263;BME280;7733;51.554;13.590;2023-04-01T02:52:36;98681.13;;;11.39;100.00
15263;BME280;7733;51.554;13.590;2023-04-01T02:55:03;98681.41;;;11.33;100.00
15263;BME280;7733;51.554;13.590;2023-04-01T02:57:29;98681.94;;;11.20;100.00
15263;BME280;7733;51.554;13.590;2023-04-01T02:59:55;98681.94;;;11.20;100.00
15263;BME280;7733;51.554;13.590;2023-04-01T03:02:20;98685.63;;;11.16;100.00
15263;BME280;7733;51.554;13.590;2023-04-01T03:04:46;98683.53;;;11.24;100.00
15263;BME280;7733;51.554;13.590;2023-04-01T03:07:12;98683.41;;;11.07;100.00
15263;BME280;7733;51.554;13.590;2023-04-01T03:09:38;98685.91;;;11.10;100.00
15263;BME280;7733;51.554;13.590;2023-04-01T03:12:05;98683.69;;;11.21;100.00
15263;BME280;7733;51.554;13.590;2023-04-01T03:14:31;98693.47;;;11.37;100.00
15263;BME280;7733;51.554;13.590;2023-04-01T03:16:57;98694.78;;;11.47;100.00
15263;BME280;7733;51.554;13.590;2023-04-01T03:19:23;98698.09;;;11.11;100.00
15263;BME280;7733;51.554;13.590;2023-04-01T03:21:48;98695.88;;;11.22;100.00
15263;BME280;7733;51.554;13.590;2023-04-01T03:24:14;98694.81;;;11.26;100.00
15263;BME280;7733;51.554;13.590;2023-04-01T03:26:40;98689.50;;;11.28;100.00
15263;BME280;7733;51.554;13.590;2023-04-01T03:29:05;98699.72;;;11.34;100.00
15263;BME280;7733;51.554;13.590;2023-04-01T03:31:31;98690.78;;;11.38;100.00
15263;BME280;7733;51.554;13.590;2023-04-01T03:33:57;98701.44;;;11.15;100.00
15263;BME280;7733;51.554;13.590;2023-04-01T03:36:23;98702.69;;;11.26;100.00
15263;BME280;7733;51.554;13.590;2023-04-01T03:38:49;98707.28;;;11.61;100.00
15263;BME280;7733;51.554;13.590;2023-04-01T03:41:17;98705.81;;;11.35;100.00
15263;BME280;7733;51.554;13.590;2023-04-01T03:43:43;98704.06;;;11.54;100.00
15263;BME280;7733;51.554;13.590;2023-04-01T03:46:09;98701.88;;;11.45;100.00
15263;BME280;7733;51.554;13.590;2023-04-01T03:48:35;98699.44;;;11.79;100.00
15263;BME280;7733;51.554;13.590;2023-04-01T03:51:01;98708.28;;;11.77;100.00
15263;BME280;7733;51.554;13.590;2023-04-01T03:53:27;98710.94;;;11.96;100.00
15263;BME280;7733;51.554;13.590;2023-04-01T03:55:53;98713.81;;;11.71;100.00
15263;BME280;7733;51.554;13.590;2023-04-01T03:58:19;98718.75;;;11.97;100.00
15263;BME280;7733;51.554;13.590;2023-04-01T04:00:46;98714.63;;;12.10;100.00
15263;BME280;7733;51.554;13.590;2023-04-01T04:03:11;98708.16;;;12.17;100.00
15263;BME280;7733;51.554;13.590;2023-04-01T04:05:37;98715.56;;;12.09;100.00
15263;BME280;7733;51.554;13.590;2023-04-01T04:08:03;98719.34;;;12.04;100.00
15263;BME280;7733;51.554;13.590;2023-04-01T04:10:29;98714.78;;;12.07;100.00
15263;BME280;7733;51.554;13.590;2023-04-01T04:12:56;98710.47;;;11.87;100.00
15263;BME280;7733;51.554;13.590;2023-04-01T04:15:22;98719.59;;;11.79;100.00
15263;BME280;7733;51.554;13.590;2023-04-01T04:17:48;98718.09;;;11.73;100.00
15263;BME280;7733;51.554;13.590;2023-04-01T04:20:14;98718.91;;;11.55;100.00
15263;BME280;7733;51.554;13.590;2023-04-01T04:22:40;98719.91;;;11.92;100.00
15263;BME280;7733;51.554;13.590;2023-04-01T04:25:07;98721.50;;;11.75;100.00
15263;BME280;7733;51.554;13.590;2023-04-01T04:27:33;98727.47;;;11.79;100.00
15263;BME280;7733;51.554;13.590;2023-04-01T04:29:59;98725.38;;;12.06;100.00
15263;BME280;7733;51.554;13.590;2023-04-01T04:32:25;98721.47;;;11.96;100.00
15263;BME280;7733;51.554;13.590;2023-04-01T04:34:50;98730.78;;;12.03;100.00
15263;BME280;7733;51.554;13.590;2023-04-01T04:37:16;98731.16;;;11.75;100.00
15263;BME280;7733;51.554;13.590;2023-04-01T04:39:42;98734.75;;;11.72;100.00
15263;BME280;7733;51.554;13.590;2023-04-01T04:42:07;98730.84;;;11.82;100.00
15263;BME280;7733;51.554;13.590;2023-04-01T04:44:33;98733.00;;;11.73;100.00
15263;BME280;7733;51.554;13.590;2023-04-01T04:46:59;98740.69;;;11.96;100.00
15263;BME280;7733;51.554;13.590;2023-04-01T04:49:25;98741.56;;;11.97;100.00
15263;BME280;7733;51.554;13.590;2023-04-01T04:51:50;98737.50;;;11.90;100.00
15263;BME280;7733;51.554;13.590;2023-04-01T04:54:17;98735.41;;;11.77;100.00
15263;BME280;7733;51.554;13.590;2023-04-01T04:56:43;98742.06;;;11.66;100.00
15263;BME280;7733;51.554;13.590;2023-04-01T04:59:09;98745.44;;;11.49;100.00
15263;BME280;7733;51.554;13.590;2023-04-01T05:01:34;98741.28;;;11.64;100.00
15263;BME280;7733;51.554;13.590;2023-04-01T05:04:00;98744.66;;;11.47;100.00
15263;BME280;7733;51.554;13.590;2023-04-01T05:06:26;98745.34;;;11.71;100.00
15263;BME280;7733;51.554;13.590;2023-04-01T05:08:55;98754.50;;;11.62;100.00
15263;BME280;7733;51.554;13.590;2023-04-01T05:11:22;98749.09;;;11.65;100.00
15263;BME280;7733;51.554;13.590;2023-04-01T05:13:48;98760.25;;;11.70;100.00
15263;BME280;7733;51.554;13.590;2023-04-01T05:16:18;98763.78;;;11.69;100.00
15263;BME280;7733;51.554;13.590;2023-04-01T05:18:45;98757.69;;;11.69;100.00
15263;BME280;7733;51.554;13.590;2023-04-01T05:21:14;98760.59;;;11.63;100.00
15263;BME280;7733;51.554;13.590;2023-04-01T05:23:41;98767.69;;;11.40;100.00
15263;BME280;7733;51.554;13.590;2023-04-01T05:26:14;98764.19;;;11.60;100.00
15263;BME280;7733;51.554;13.590;2023-04-01T05:28:41;98764.34;;;11.57;100.00
15263;BME280;7733;51.554;13.590;2023-04-01T05:31:07;98769.00;;;11.50;100.00
15263;BME280;7733;51.554;13.590;2023-04-01T05:33:33;98772.63;;;11.48;100.00
15263;BME280;7733;51.554;13.590;2023-04-01T05:36:15;98778.16;;;11.42;100.00
15263;BME280;7733;51.554;13.590;2023-04-01T05:38:42;98779.94;;;11.41;100.00
15263;BME280;7733;51.554;13.590;2023-04-01T05:41:09;98769.88;;;11.51;100.00
15263;BME280;7733;51.554;13.590;2023-04-01T05:43:39;98779.03;;;11.41;100.00
15263;BME280;7733;51.554;13.590;2023-04-01T05:46:05;98776.94;;;11.49;100.00
15263;BME280;7733;51.554;13.590;2023-04-01T05:48:33;98775.63;;;11.39;100.00
15263;BME280;7733;51.554;13.590;2023-04-01T05:51:01;98780.78;;;11.42;100.00
15263;BME280;7733;51.554;13.590;2023-04-01T05:53:26;98776.16;;;11.47;100.00
15263;BME280;7733;51.554;13.590;2023-04-01T05:55:52;98780.94;;;11.57;100.00
15263;BME280;7733;51.554;13.590;2023-04-01T06:00:51;98783.06;;;11.49;100.00
15263;BME280;7733;51.554;13.590;2023-04-01T06:03:17;98787.44;;;11.49;100.00
15263;BME280;7733;51.554;13.590;2023-04-01T06:05:44;98786.31;;;11.75;100.00
15263;BME280;7733;51.554;13.590;2023-04-01T06:08:15;98780.09;;;11.37;100.00
15263;BME280;7733;51.554;13.590;2023-04-01T06:31:26;98802.28;;;11.91;100.00
15263;BME280;7733;51.554;13.590;2023-04-01T06:39:58;98804.03;;;11.90;100.00
15263;BME280;7733;51.554;13.590;2023-04-01T06:42:52;98796.09;;;12.10;100.00
15263;BME280;7733;51.554;13.590;2023-04-01T06:52:18;98814.19;;;11.98;100.00
15263;BME280;7733;51.554;13.590;2023-04-01T06:54:35;98809.22;;;11.71;100.00
15263;BME280;7733;51.554;13.590;2023-04-01T06:57:29;98817.47;;;11.84;100.00
15263;BME280;7733;51.554;13.590;2023-04-01T07:00:00;98815.41;;;11.70;100.00
15263;BME280;7733;51.554;13.590;2023-04-01T07:02:43;98814.84;;;11.84;100.00
15263;BME280;7733;51.554;13.590;2023-04-01T07:05:14;98813.97;;;11.83;100.00
15263;BME280;7733;51.554;13.590;2023-04-01T07:07:50;98812.03;;;12.26;100.00
15263;BME280;7733;51.554;13.590;2023-04-01T07:13:47;98819.69;;;12.12;100.00
15263;BME280;7733;51.554;13.590;2023-04-01T07:16:48;98820.38;;;11.97;100.00
15263;BME280;7733;51.554;13.590;2023-04-01T07:19:30;98822.81;;;11.81;100.00
15263;BME280;7733;51.554;13.590;2023-04-01T07:22:36;98833.91;;;12.08;100.00
15263;BME280;7733;51.554;13.590;2023-04-01T07:25:35;98820.97;;;12.41;100.00
15263;BME280;7733;51.554;13.590;2023-04-01T07:28:12;98823.09;;;12.33;100.00
15263;BME280;7733;51.554;13.590;2023-04-01T07:31:10;98834.47;;;12.52;100.00
15263;BME280;7733;51.554;13.590;2023-04-01T07:37:13;98838.47;;;12.42;100.00
15263;BME280;7733;51.554;13.590;2023-04-01T07:40:00;98838.66;;;12.37;100.00
15263;BME280;7733;51.554;13.590;2023-04-01T07:45:30;98847.34;;;12.39;100.00
15263;BME280;7733;51.554;13.590;2023-04-01T07:51:27;98844.06;;;12.53;100.00
15263;BME280;7733;51.554;13.590;2023-04-01T07:54:03;98847.13;;;12.63;100.00
15263;BME280;7733;51.554;13.590;2023-04-01T07:56:42;98856.78;;;12.25;100.00
15263;BME280;7733;51.554;13.590;2023-04-01T07:59:45;98853.97;;;12.48;100.00
15263;BME280;7733;51.554;13.590;2023-04-01T08:05:28;98865.56;;;12.44;100.00
15263;BME280;7733;51.554;13.590;2023-04-01T08:08:17;98860.47;;;12.21;100.00
15263;BME280;7733;51.554;13.590;2023-04-01T08:17:22;98865.47;;;12.45;100.00
15263;BME280;7733;51.554;13.590;2023-04-01T08:19:43;98871.44;;;12.68;100.00
15263;BME280;7733;51.554;13.590;2023-04-01T08:22:39;98863.84;;;12.43;100.00
15263;BME280;7733;51.554;13.590;2023-04-01T08:25:17;98876.25;;;12.39;100.00
15263;BME280;7733;51.554;13.590;2023-04-01T08:28:19;98876.84;;;12.65;100.00
15263;BME280;7733;51.554;13.590;2023-04-01T08:31:03;98874.69;;;12.54;100.00
15263;BME280;7733;51.554;13.590;2023-04-01T08:33:31;98880.41;;;12.64;100.00
15263;BME280;7733;51.554;13.590;2023-04-01T08:36:26;98880.09;;;12.70;100.00
15263;BME280;7733;51.554;13.590;2023-04-01T08:39:07;98876.34;;;12.57;100.00
15263;BME280;7733;51.554;13.590;2023-04-01T08:41:56;98877.00;;;12.43;100.00
15263;BME280;7733;51.554;13.590;2023-04-01T08:53:12;98879.69;;;12.41;100.00
15263;BME280;7733;51.554;13.590;2023-04-01T08:56:14;98875.25;;;12.61;100.00
15263;BME280;7733;51.554;13.590;2023-04-01T09:01:55;98882.66;;;12.53;100.00
15263;BME280;7733;51.554;13.590;2023-04-01T09:11:41;98880.41;;;12.64;100.00
15263;BME280;7733;51.554;13.590;2023-04-01T09:14:30;98882.53;;;12.74;100.00
15263;BME280;7733;51.554;13.590;2023-04-01T09:17:14;98877.69;;;12.65;100.00
15263;BME280;7733;51.554;13.590;2023-04-01T09:26:29;98877.50;;;13.25;100.00
15263;BME280;7733;51.554;13.590;2023-04-01T09:32:11;98875.75;;;13.43;98.79
15263;BME280;7733;51.554;13.590;2023-04-01T09:38:29;98890.34;;;13.31;99.43
15263;BME280;7733;51.554;13.590;2023-04-01T09:40:57;98889.13;;;13.02;98.84
15263;BME280;7733;51.554;13.590;2023-04-01T09:43:28;98891.28;;;13.11;98.25
15263;BME280;7733;51.554;13.590;2023-04-01T10:00:15;98893.75;;;12.59;100.00
15263;BME280;7733;51.554;13.590;2023-04-01T10:12:46;98896.56;;;13.30;97.76
15263;BME280;7733;51.554;13.590;2023-04-01T10:37:01;98893.31;;;13.77;96.29
15263;BME280;7733;51.554;13.590;2023-04-01T10:45:56;98909.59;;;13.50;97.59
15263;BME280;7733;51.554;13.590;2023-04-01T10:49:04;98911.16;;;13.72;98.62
15263;BME280;7733;51.554;13.590;2023-04-01T11:28:46;98917.19;;;14.08;94.24
15263;BME280;7733;51.554;13.590;2023-04-01T11:31:50;98917.63;;;13.99;95.16
15263;BME280;7733;51.554;13.590;2023-04-01T11:42:49;98916.81;;;14.31;92.78
15263;BME280;7733;51.554;13.590;2023-04-01T11:45:37;98925.75;;;14.29;92.98
15263;BME280;7733;51.554;13.590;2023-04-01T11:56:57;98931.56;;;14.69;96.69
15263;BME280;7733;51.554;13.590;2023-04-01T12:00:02;98929.72;;;14.20;99.79
15263;BME280;7733;51.554;13.590;2023-04-01T12:06:03;98923.66;;;15.00;96.33
15263;BME280;7733;51.554;13.590;2023-04-01T12:11:37;98924.59;;;15.31;94.32
15263;BME280;7733;51.554;13.590;2023-04-01T12:15:02;98918.94;;;15.37;92.45
15263;BME280;7733;51.554;13.590;2023-04-01T12:17:43;98922.88;;;15.45;90.35
15263;BME280;7733;51.554;13.590;2023-04-01T12:31:47;98929.88;;;15.31;91.78
15263;BME280;7733;51.554;13.590;2023-04-01T12:40:28;98928.06;;;15.63;90.30
15263;BME280;7733;51.554;13.590;2023-04-01T12:45:44;98924.22;;;15.52;90.80
15263;BME280;7733;51.554;13.590;2023-04-01T12:48:52;98931.00;;;15.57;91.38
15263;BME280;7733;51.554;13.590;2023-04-01T12:52:05;98926.59;;;15.57;91.81
15263;BME280;7733;51.554;13.590;2023-04-01T13:04:44;98945.72;;;15.46;91.32
15263;BME280;7733;51.554;13.590;2023-04-01T13:15:36;98970.00;;;14.40;96.36
15263;BME280;7733;51.554;13.590;2023-04-01T13:26:41;98985.41;;;13.80;100.00
15263;BME280;7733;51.554;13.590;2023-04-01T13:29:25;98992.72;;;13.56;100.00
15263;BME280;7733;51.554;13.590;2023-04-01T13:32:22;98980.13;;;13.80;100.00
15263;BME280;7733;51.554;13.590;2023-04-01T13:38:08;98978.34;;;14.32;100.00
15263;BME280;7733;51.554;13.590;2023-04-01T13:43:49;98997.34;;;13.87;100.00
15263;BME280;7733;51.554;13.590;2023-04-01T13:47:12;98988.53;;;14.05;100.00
15263;BME280;7733;51.554;13.590;2023-04-01T13:55:33;98989.13;;;13.76;100.00
15263;BME280;7733;51.554;13.590;2023-04-01T14:01:20;98983.91;;;14.60;98.78
15263;BME280;7733;51.554;13.590;2023-04-01T14:10:42;98988.16;;;15.12;94.49
15263;BME280;7733;51.554;13.590;2023-04-01T14:16:20;98985.78;;;15.23;94.41
15263;BME280;7733;51.554;13.590;2023-04-01T14:22:17;98994.91;;;15.33;93.84
15263;BME280;7733;51.554;13.590;2023-04-01T14:25:08;98992.16;;;15.35;93.46
15263;BME280;7733;51.554;13.590;2023-04-01T14:27:56;98989.97;;;15.59;94.59
15263;BME280;7733;51.554;13.590;2023-04-01T14:31:18;98989.66;;;15.79;93.64
15263;BME280;7733;51.554;13.590;2023-04-01T14:36:47;98995.75;;;15.34;95.46
15263;BME280;7733;51.554;13.590;2023-04-01T14:39:48;98999.16;;;15.67;94.25
15263;BME280;7733;51.554;13.590;2023-04-01T14:42:41;98996.09;;;15.59;94.15
15263;BME280;7733;51.554;13.590;2023-04-01T14:48:51;98990.28;;;15.84;93.37
15263;BME280;7733;51.554;13.590;2023-04-01T14:51:36;98999.09;;;15.69;96.05
15263;BME280;7733;51.554;13.590;2023-04-01T15:02:59;99006.75;;;15.26;97.84
15263;BME280;7733;51.554;13.590;2023-04-01T15:05:49;99009.53;;;14.91;98.07
15263;BME280;7733;51.554;13.590;2023-04-01T15:08:21;99017.22;;;15.12;97.02
15263;BME280;7733;51.554;13.590;2023-04-01T15:11:19;99017.53;;;15.21;98.46
15263;BME280;7733;51.554;13.590;2023-04-01T15:14:18;99014.81;;;15.07;100.00
15263;BME280;7733;51.554;13.590;2023-04-01T15:17:13;99024.63;;;15.05;100.00
15263;BME280;7733;51.554;13.590;2023-04-01T15:20:32;99028.47;;;15.31;99.83
15263;BME280;7733;51.554;13.590;2023-04-01T15:30:12;99039.75;;;14.86;100.00
15263;BME280;7733;51.554;13.590;2023-04-01T15:32:55;99039.34;;;14.43;100.00
15263;BME280;7733;51.554;13.590;2023-04-01T15:35:39;99043.19;;;14.71;100.00
15263;BME280;7733;51.554;13.590;2023-04-01T15:38:33;99049.75;;;14.79;100.00
15263;BME280;7733;51.554;13.590;2023-04-01T15:41:15;99054.91;;;14.82;100.00
15263;BME280;7733;51.554;13.590;2023-04-01T15:43:47;99058.72;;;14.59;100.00
15263;BME280;7733;51.554;13.590;2023-04-01T15:46:48;99062.66;;;14.34;100.00
15263;BME280;7733;51.554;13.590;2023-04-01T15:49:35;99072.06;;;14.56;100.00
15263;BME280;7733;51.554;13.590;2023-04-01T15:52:20;99069.47;;;14.20;100.00
15263;BME280;7733;51.554;13.590;2023-04-01T16:03:48;99079.69;;;13.92;100.00
15263;BME280;7733;51.554;13.590;2023-04-01T16:06:29;99087.44;;;13.95;100.00
15263;BME280;7733;51.554;13.590;2023-04-01T16:12:17;99093.66;;;13.94;100.00
15263;BME280;7733;51.554;13.590;2023-04-01T16:20:24;99104.81;;;13.63;100.00
15263;BME280;7733;51.554;13.590;2023-04-01T16:23:13;99107.44;;;13.63;100.00
15263;BME280;7733;51.554;13.590;2023-04-01T16:25:53;99102.19;;;13.63;100.00
15263;BME280;7733;51.554;13.590;2023-04-01T16:28:37;99106.50;;;13.83;100.00
15263;BME280;7733;51.554;13.590;2023-04-01T16:31:32;99118.19;;;13.58;100.00
15263;BME280;7733;51.554;13.590;2023-04-01T16:34:20;99112.78;;;13.24;100.00
15263;BME280;7733;51.554;13.590;2023-04-01T16:37:11;99125.53;;;13.52;100.00
15263;BME280;7733;51.554;13.590;2023-04-01T16:40:20;99125.03;;;13.62;100.00
15263;BME280;7733;51.554;13.590;2023-04-01T16:43:13;99133.13;;;13.58;100.00
15263;BME280;7733;51.554;13.590;2023-04-01T16:46:17;99139.63;;;13.69;100.00
15263;BME280;7733;51.554;13.590;2023-04-01T16:51:23;99141.81;;;13.60;100.00
15263;BME280;7733;51.554;13.590;2023-04-01T16:56:45;99150.94;;;13.53;100.00
15263;BME280;7733;51.554;13.590;2023-04-01T17:27:55;99208.84;;;13.14;100.00
15263;BME280;7733;51.554;13.590;2023-04-01T17:33:13;99212.44;;;12.70;100.00
15263;BME280;7733;51.554;13.590;2023-04-01T17:39:19;99230.03;;;12.26;100.00
15263;BME280;7733;51.554;13.590;2023-04-01T17:50:44;99237.13;;;12.01;100.00
15263;BME280;7733;51.554;13.590;2023-04-01T17:53:51;99243.56;;;11.94;100.00
15263;BME280;7733;51.554;13.590;2023-04-01T18:02:03;99253.44;;;12.32;100.00
15263;BME280;7733;51.554;13.590;2023-04-01T18:11:00;99278.25;;;12.03;100.00
15263;BME280;7733;51.554;13.590;2023-04-01T18:23:03;99305.59;;;11.73;100.00
15263;BME280;7733;51.554;13.590;2023-04-01T18:28:36;99306.38;;;11.51;100.00
15263;BME280;7733;51.554;13.590;2023-04-01T18:31:14;99308.59;;;11.37;100.00
15263;BME280;7733;51.554;13.590;2023-04-01T18:36:58;99321.53;;;11.68;100.00
15263;BME280;7733;51.554;13.590;2023-04-01T18:45:33;99344.47;;;11.12;100.00
15263;BME280;7733;51.554;13.590;2023-04-01T18:51:13;99348.88;;;11.63;100.00
15263;BME280;7733;51.554;13.590;2023-04-01T18:54:03;99353.63;;;11.26;100.00
15263;BME280;7733;51.554;13.590;2023-04-01T18:56:40;99363.69;;;11.39;100.00
15263;BME280;7733;51.554;13.590;2023-04-01T18:59:29;99366.53;;;11.33;100.00
15263;BME280;7733;51.554;13.590;2023-04-01T19:02:20;99370.66;;;11.40;100.00
15263;BME280;7733;51.554;13.590;2023-04-01T19:05:09;99370.75;;;11.37;100.00
15263;BME280;7733;51.554;13.590;2023-04-01T19:19:24;99387.38;;;11.11;100.00
15263;BME280;7733;51.554;13.590;2023-04-01T19:21:59;99389.44;;;11.54;100.00
15263;BME280;7733;51.554;13.590;2023-04-01T19:24:53;99395.56;;;11.28;100.00
15263;BME280;7733;51.554;13.590;2023-04-01T19:27:32;99402.06;;;11.43;100.00
15263;BME280;7733;51.554;13.590;2023-04-01T19:36:54;99413.78;;;11.06;100.00
15263;BME280;7733;51.554;13.590;2023-04-01T19:42:34;99419.94;;;10.76;100.00
15263;BME280;7733;51.554;13.590;2023-04-01T19:46:00;99425.88;;;10.82;100.00
15263;BME280;7733;51.554;13.590;2023-04-01T19:48:33;99434.88;;;10.44;100.00
15263;BME280;7733;51.554;13.590;2023-04-01T19:51:38;99428.91;;;10.69;100.00
15263;BME280;7733;51.554;13.590;2023-04-01T19:57:30;99433.50;;;10.62;100.00
15263;BME280;7733;51.554;13.590;2023-04-01T20:06:07;99451.94;;;10.88;100.00
15263;BME280;7733;51.554;13.590;2023-04-01T20:14:49;99468.56;;;10.27;100.00
15263;BME280;7733;51.554;13.590;2023-04-01T20:17:27;99475.41;;;10.32;100.00
15263;BME280;7733;51.554;13.590;2023-04-01T20:19:58;99481.59;;;10.30;100.00
15263;BME280;7733;51.554;13.590;2023-04-01T20:25:48;99492.41;;;10.16;100.00
15263;BME280;7733;51.554;13.590;2023-04-01T20:28:21;99498.50;;;10.17;100.00
15263;BME280;7733;51.554;13.590;2023-04-01T20:36:42;99515.41;;;9.71;100.00
15263;BME280;7733;51.554;13.590;2023-04-01T20:45:14;99521.66;;;9.99;100.00
15263;BME280;7733;51.554;13.590;2023-04-01T20:50:59;99532.25;;;9.95;100.00
15263;BME280;7733;51.554;13.590;2023-04-01T20:53:40;99537.75;;;10.21;100.00
15263;BME280;7733;51.554;13.590;2023-04-01T20:56:31;99536.47;;;10.00;100.00
15263;BME280;7733;51.554;13.590;2023-04-01T21:07:58;99556.84;;;9.54;100.00
15263;BME280;7733;51.554;13.590;2023-04-01T21:25:36;99581.81;;;9.30;100.00
15263;BME280;7733;51.554;13.590;2023-04-01T21:37:32;99605.38;;;8.87;100.00
15263;BME280;7733;51.554;13.590;2023-04-01T21:52:29;99621.63;;;9.01;100.00
15263;BME280;7733;51.554;13.590;2023-04-01T21:55:14;99623.88;;;9.19;100.00
15263;BME280;7733;51.554;13.590;2023-04-01T22:04:10;99640.38;;;8.78;100.00
15263;BME280;7733;51.554;13.590;2023-04-01T22:06:47;99635.06;;;8.84;100.00
15263;BME280;7733;51.554;13.590;2023-04-01T22:09:29;99650.63;;;9.33;100.00
15263;BME280;7733;51.554;13.590;2023-04-01T22:14:51;99651.19;;;9.06;100.00
15263;BME280;7733;51.554;13.590;2023-04-01T22:17:44;99660.63;;;8.68;100.00
15263;BME280;7733;51.554;13.590;2023-04-01T22:20:42;99660.94;;;8.50;100.00
15263;BME280;7733;51.554;13.590;2023-04-01T22:23:46;99666.28;;;8.44;100.00
15263;BME280;7733;51.554;13.590;2023-04-01T22:29:47;99669.44;;;8.64;100.00
15263;BME280;7733;51.554;13.590;2023-04-01T22:32:24;99670.63;;;8.45;100.00
15263;BME280;7733;51.554;13.590;2023-04-01T22:35:08;99673.03;;;8.56;100.00
15263;BME280;7733;51.554;13.590;2023-04-01T22:41:22;99690.03;;;8.79;100.00
15263;BME280;7733;51.554;13.590;2023-04-01T22:43:55;99686.34;;;8.43;100.00
15263;BME280;7733;51.554;13.590;2023-04-01T22:49:20;99705.22;;;8.59;100.00
15263;BME280;7733;51.554;13.590;2023-04-01T22:52:36;99702.50;;;8.65;100.00